INFORMACIÓN METAR y TAF
METAR FOR GCLP
ADDS - METARS form results

(1013 UTC 13 August 2022)
Data provider http://aviationweather.gov/metar/data/
 
METAR text: GCLP 131000Z 02023KT 9999 FEW025 26/17 Q1016 NOSIG
Conditions at: GCLP (LAS PALMAS/GANDO, ES) observed 1000 UTC 13 August 2022
Temperature: 26.0°C (79°F)
Dewpoint: 17.0°C (63°F) [RH = 58%]
Pressure (altimeter): 30.00 inches Hg (1016.0 mb)
Winds: from the NNE (20 degrees) at 26 MPH (23 knots; 11.8 m/s)
Visibility: 6 or more miles (10+ km)
Ceiling: at least 12,000 feet AGL
Clouds: few clouds at 2500 feet AGL
Weather: no significant weather observed at this time

METAR text: GCLP 130930Z 01018KT 330V030 9999 FEW025 26/17 Q1015 NOSIG
Conditions at: GCLP (LAS PALMAS/GANDO, ES) observed 0930 UTC 13 August 2022
Temperature: 26.0°C (79°F)
Dewpoint: 17.0°C (63°F) [RH = 58%]
Pressure (altimeter): 29.97 inches Hg (1015.0 mb)
Winds: from the N (10 degrees) at 21 MPH (18 knots; 9.3 m/s)
Visibility: 6 or more miles (10+ km)
Ceiling: at least 12,000 feet AGL
Clouds: few clouds at 2500 feet AGL
Weather: no significant weather observed at this time

Forecast for: GCLP (LAS PALMAS/GANDO, ES)
Text: TAF GCLP 130800Z 1309/1409 01025KT 9999 FEW025 TX27/1314Z TN21/1406Z
Forecast period: 0900 UTC 13 August 2022 to 0900 UTC 14 August 2022
Forecast type: FROM: standard forecast or significant change
Winds: from the N (10 degrees) at 29 MPH (25 knots; 12.9 m/s)
Visibility: 6 or more miles (10+ km)
Ceiling: at least 12,000 feet AGL
Clouds: few clouds at 2500 feet AGL
Weather: no significant weather forecast for this period
Text: PROB30
Forecast period: 1000 to 2000 UTC 13 August 2022
Forecast type: TEMPORARY: The following changes expected for less than half the time period
Winds: from the N (10 degrees) at 25 MPH (22 knots; 11.3 m/s)
gusting to 37 MPH (32 knots; 16.5 m/s)
Visibility: missing
Ceiling: unknown
Clouds: missing
Weather: no significant weather forecast for this period

 MAPA DE AEROPUERTO

 INFORMACIÓN DE PISTA
Pista 03L Longitud 10171 ft Ancho 148 ft
Elevación 78 ft Umbral desplazado 0 ft Rumbo de pista 22
Pista 21R Longitud 10171 ft Ancho 148 ft
Elevación 33 ft Umbral desplazado 0 ft Rumbo de pista 202
Pista 03R Longitud 10171 ft Ancho 148 ft
Elevación 69 ft Umbral desplazado 0 ft Rumbo de pista 22
Pista 21L Longitud 10171 ft Ancho 148 ft
Elevación 27 ft Umbral desplazado 0 ft Rumbo de pista 202

 FRECUANCIAS DEL AEROPUERTO
Tipo APP Nombre APP Frecuencia 120.9 MHZ
Tipo ATIS Nombre ATIS Frecuencia 118.6 MHZ
Tipo GND Nombre GND Frecuencia 121.7 MHZ
Tipo TWR Nombre TWR Frecuencia 118.3 MHZ

 RADIO AYUDAS DEL AEROPUERTO
Tipo VOR-DME Nombre Gran Canaria Frecuencia 112900 KHZ
Tipo VOR-DME Nombre Gran Canaria Frecuencia 115000 KHZ
Tipo TACAN Nombre Gran Canaria Frecuencia 115600 KHZ
Tipo NDB Nombre Gran Canaria Frecuencia 365 KHZ




Powered by Virtual Airlines Manager